Time;durP1;ratioP1;P1;durP2;ratioP2;P2;SDS_P1;SDS_P2;PMS_P1;PMS_P2;Temp;Humidity;BMP_temperature;BMP_pressure;BME280_temperature;BME280_humidity;BME280_pressure;Samples;Min_cycle;Max_cycle;Signal;HPM_P1;HPM_P2
2022/05/28 00:02:02;;;;;;;7.55;3.63;;;;;;;9.97;82.93;97985.69;5015720;28;20475;-59
2022/05/28 00:04:28;;;;;;;6.85;3.75;;;;;;;9.95;82.87;97970.25;5014695;28;20487;-58
2022/05/28 00:06:53;;;;;;;5.57;3.80;;;;;;;9.95;82.71;97974.59;5015189;28;20109;-59
2022/05/28 00:09:19;;;;;;;7.82;3.50;;;;;;;9.91;83.20;97973.06;5015213;28;20022;-59
2022/05/28 00:11:45;;;;;;;6.15;3.42;;;;;;;9.90;83.70;97961.84;5013472;28;20112;-59
2022/05/28 00:14:11;;;;;;;4.95;3.50;;;;;;;9.82;83.78;97966.56;5015325;28;20021;-59
2022/05/28 00:16:37;;;;;;;5.43;3.55;;;;;;;9.67;83.46;97960.34;5014846;28;20036;-60
2022/05/28 00:19:06;;;;;;;7.75;3.65;;;;;;;9.74;83.85;97960.91;5015121;28;20022;-59
2022/05/28 00:21:33;;;;;;;6.07;3.60;;;;;;;9.74;83.17;97963.50;5014334;28;20026;-59
2022/05/28 00:23:59;;;;;;;7.38;3.92;;;;;;;9.67;83.04;97962.91;5014889;28;20029;-59
2022/05/28 00:26:25;;;;;;;5.47;3.78;;;;;;;9.73;83.46;97960.03;5015386;28;20052;-60
2022/05/28 00:28:51;;;;;;;6.70;4.15;;;;;;;9.70;83.30;97949.03;5015155;28;20069;-61
2022/05/28 00:31:16;;;;;;;8.13;3.47;;;;;;;9.68;83.59;97956.84;5014589;28;20026;-60
2022/05/28 00:33:43;;;;;;;8.65;3.95;;;;;;;9.67;83.87;97957.75;5014520;28;20026;-60
2022/05/28 00:36:11;;;;;;;5.93;3.38;;;;;;;9.70;84.10;97942.09;5013889;28;20026;-60
2022/05/28 00:38:38;;;;;;;7.38;3.75;;;;;;;9.73;83.76;97936.78;5014746;28;20022;-62
2022/05/28 00:41:04;;;;;;;6.13;4.00;;;;;;;9.66;84.32;97937.97;5014343;28;20022;-62
2022/05/28 00:43:31;;;;;;;8.77;3.45;;;;;;;9.56;84.56;97940.13;5014717;28;20356;-61
2022/05/28 00:46:03;;;;;;;7.65;3.85;;;;;;;9.32;84.68;97909.34;5014169;28;20029;-62
2022/05/28 00:48:32;;;;;;;7.03;3.55;;;;;;;9.34;84.40;97909.28;5002620;28;20471;-62
2022/05/28 00:51:05;;;;;;;5.68;3.45;;;;;;;9.53;84.73;97931.69;5014252;28;20056;-62
2022/05/28 00:53:33;;;;;;;10.65;4.60;;;;;;;9.55;84.47;97929.88;5014388;28;20030;-61
2022/05/28 00:56:01;;;;;;;7.50;4.10;;;;;;;9.19;84.02;97876.41;5014155;28;20534;-61
2022/05/28 00:58:28;;;;;;;5.32;3.78;;;;;;;9.41;84.93;97927.94;5014333;28;20037;-61
2022/05/28 01:00:54;;;;;;;5.15;3.78;;;;;;;9.41;84.48;97933.09;5013980;28;20141;-61
2022/05/28 01:03:32;;;;;;;12.07;3.90;;;;;;;9.39;84.58;97934.91;5014186;28;20129;-60
2022/05/28 01:06:08;;;;;;;8.10;4.20;;;;;;;9.44;84.64;97927.78;5014338;28;20479;-60
2022/05/28 01:08:46;;;;;;;5.30;3.78;;;;;;;9.45;84.36;97925.13;5014172;28;20026;-60
2022/05/28 01:11:21;;;;;;;6.18;3.63;;;;;;;9.12;84.00;97871.53;5014085;28;20034;-60
2022/05/28 01:13:51;;;;;;;7.35;4.10;;;;;;;9.47;83.66;97923.31;5014031;28;20399;-61
2022/05/28 01:16:36;;;;;;;8.85;4.40;;;;;;;9.45;84.41;97935.47;5014513;28;20021;-61
2022/05/28 01:19:06;;;;;;;7.57;3.67;;;;;;;9.48;83.80;97925.00;5013830;28;20034;-61
2022/05/28 01:21:44;;;;;;;9.32;3.78;;;;;;;9.10;84.70;97857.81;5013514;28;20034;-60
2022/05/28 01:24:19;;;;;;;7.60;4.20;;;;;;;9.42;84.86;97914.09;5013785;28;20026;-60
2022/05/28 01:27:02;;;;;;;8.15;4.10;;;;;;;9.43;84.52;97913.19;5013617;28;20084;-60
2022/05/28 01:29:43;;;;;;;5.93;3.97;;;;;;;9.07;83.97;97857.97;5013775;28;20040;-60
2022/05/28 01:32:11;;;;;;;11.05;4.22;;;;;;;9.38;84.57;97910.81;5013647;28;20060;-60
2022/05/28 01:34:38;;;;;;;5.75;3.58;;;;;;;9.44;84.38;97912.28;5013238;28;20022;-59
2022/05/28 01:37:05;;;;;;;6.93;4.20;;;;;;;9.50;84.81;97904.25;5013300;28;20030;-60
2022/05/28 01:39:32;;;;;;;7.28;3.80;;;;;;;9.50;84.82;97899.09;5013340;28;20434;-60
2022/05/28 01:41:58;;;;;;;7.10;4.38;;;;;;;9.58;84.96;97906.50;5013382;28;20080;-60
2022/05/28 01:44:24;;;;;;;7.22;4.13;;;;;;;9.57;85.11;97890.13;5013704;28;20024;-61
2022/05/28 01:46:51;;;;;;;7.07;3.67;;;;;;;9.32;85.29;97849.13;5013084;28;20121;-61
2022/05/28 01:49:20;;;;;;;8.70;4.10;;;;;;;9.65;84.60;97895.78;5012774;28;20122;-60
2022/05/28 01:51:50;;;;;;;7.93;4.50;;;;;;;9.63;85.75;97881.25;5012882;28;20030;-60
2022/05/28 01:54:19;;;;;;;8.63;4.00;;;;;;;9.42;84.46;97849.50;5009176;28;20033;-60
2022/05/28 01:56:50;;;;;;;8.05;4.00;;;;;;;9.40;85.35;97841.81;5011880;28;20368;-60
2022/05/28 01:59:21;;;;;;;6.70;4.30;;;;;;;9.74;85.70;97881.59;5013312;28;20084;-60
2022/05/28 02:01:47;;;;;;;8.23;4.50;;;;;;;9.87;85.02;97884.44;5013105;28;20446;-60
2022/05/28 02:04:13;;;;;;;10.15;4.43;;;;;;;9.92;85.81;97879.03;5013179;28;20057;-60
2022/05/28 02:06:40;;;;;;;8.55;4.00;;;;;;;9.99;85.73;97877.81;5013171;28;20101;-59
2022/05/28 02:09:11;;;;;;;9.43;4.45;;;;;;;10.01;84.87;97878.59;5012790;28;20026;-60
2022/05/28 02:11:47;;;;;;;9.40;4.23;;;;;;;10.05;84.35;97871.50;5011588;28;20163;-60
2022/05/28 02:14:48;;;;;;;8.95;4.78;;;;;;;10.05;84.35;97867.19;5013321;28;20033;-60
2022/05/28 02:17:46;;;;;;;7.60;4.55;;;;;;;10.05;84.92;97868.94;4942969;28;20088;-60
2022/05/28 02:20:15;;;;;;;6.90;4.10;;;;;;;10.08;84.58;97861.88;4993196;28;20085;-61
2022/05/28 02:22:43;;;;;;;12.40;4.70;;;;;;;10.09;84.21;97867.88;5010065;28;20502;-61
2022/05/28 02:25:25;;;;;;;6.82;4.35;;;;;;;10.07;84.38;97875.72;5011931;28;20034;-60
2022/05/28 02:27:53;;;;;;;6.57;4.25;;;;;;;9.73;84.93;97809.28;5012387;28;20025;-62
2022/05/28 02:30:19;;;;;;;7.93;4.10;;;;;;;10.12;84.10;97863.41;5012541;28;20022;-61
2022/05/28 02:32:45;;;;;;;9.70;4.65;;;;;;;10.36;83.57;97857.94;5012486;28;20029;-61
2022/05/28 02:35:12;;;;;;;7.75;4.65;;;;;;;10.63;82.95;97855.72;5012655;28;20076;-61
2022/05/28 02:37:38;;;;;;;6.20;4.43;;;;;;;10.73;82.26;97860.41;5012696;28;20048;-61
2022/05/28 02:40:04;;;;;;;10.85;4.75;;;;;;;10.77;82.49;97859.34;5012157;28;20399;-60
2022/05/28 02:42:32;;;;;;;7.05;4.15;;;;;;;10.88;82.49;97847.50;5012222;28;20041;-62
2022/05/28 02:44:58;;;;;;;11.23;4.53;;;;;;;11.14;81.30;97847.88;5012209;28;20022;-62
2022/05/28 02:47:24;;;;;;;13.02;4.57;;;;;;;11.30;81.21;97847.91;5012264;28;20383;-62
2022/05/28 02:49:53;;;;;;;12.88;4.60;;;;;;;11.27;80.21;97834.25;5011756;28;20029;-62
2022/05/28 02:52:18;;;;;;;9.80;4.72;;;;;;;11.39;80.80;97849.97;5011692;28;20033;-61
2022/05/28 02:54:44;;;;;;;11.60;5.00;;;;;;;11.27;80.29;97853.22;5012373;28;20026;-65
2022/05/28 02:57:09;;;;;;;9.07;4.88;;;;;;;11.17;78.99;97852.03;5011773;28;20026;-59
2022/05/28 02:59:35;;;;;;;10.20;5.22;;;;;;;11.34;79.14;97845.97;5011952;28;20502;-60
2022/05/28 03:02:00;;;;;;;6.60;4.85;;;;;;;11.38;79.86;97839.69;5011933;28;20022;-61
2022/05/28 03:04:26;;;;;;;22.42;13.10;;;;;;;11.34;79.44;97852.00;5012422;28;20153;-60
2022/05/28 03:06:52;;;;;;;9.32;6.95;;;;;;;11.40;78.73;97848.19;5012184;28;20041;-61
2022/05/28 03:09:17;;;;;;;10.18;6.43;;;;;;;11.50;79.73;97849.41;5011744;28;20026;-61
2022/05/28 03:11:43;;;;;;;8.40;5.97;;;;;;;11.51;80.16;97845.03;5012007;28;20061;-61
2022/05/28 03:14:09;;;;;;;8.15;5.93;;;;;;;11.56;80.16;97848.22;5011995;28;20390;-61
2022/05/28 03:16:34;;;;;;;8.75;6.13;;;;;;;11.57;80.43;97842.94;5011786;28;20105;-60
2022/05/28 03:19:00;;;;;;;11.77;6.60;;;;;;;11.56;80.49;97846.44;5012089;28;20038;-60
2022/05/28 03:21:25;;;;;;;13.90;7.55;;;;;;;11.51;79.29;97840.69;5011947;28;20022;-60
2022/05/28 03:23:51;;;;;;;12.07;7.20;;;;;;;11.51;79.74;97845.03;5011811;28;20037;-60
2022/05/28 03:26:23;;;;;;;8.77;6.00;;;;;;;11.46;78.79;97827.16;5011934;28;20049;-60
2022/05/28 03:28:50;;;;;;;11.90;6.53;;;;;;;11.52;79.39;97831.16;5012038;28;20026;-60
2022/05/28 03:31:16;;;;;;;10.85;6.55;;;;;;;11.62;78.44;97832.31;5011989;28;20045;-60
2022/05/28 03:33:42;;;;;;;10.00;6.18;;;;;;;11.69;78.24;97822.44;5011461;28;20045;-60
2022/05/28 03:36:08;;;;;;;16.10;7.30;;;;;;;11.80;78.48;97819.22;5010598;28;20381;-60
2022/05/28 03:38:34;;;;;;;9.30;5.38;;;;;;;11.72;78.24;97819.66;5011305;28;20065;-59
2022/05/28 03:41:00;;;;;;;9.73;5.68;;;;;;;11.86;77.95;97808.53;5011165;28;20442;-60
2022/05/28 03:43:26;;;;;;;11.90;6.47;;;;;;;12.01;78.21;97812.84;5011718;28;20026;-60
2022/05/28 03:45:52;;;;;;;9.48;6.38;;;;;;;11.90;77.56;97805.66;5011516;28;20030;-60
2022/05/28 03:48:18;;;;;;;13.15;5.95;;;;;;;11.95;77.32;97812.38;5011756;28;20088;-60
2022/05/28 03:50:43;;;;;;;11.63;5.78;;;;;;;11.85;76.23;97812.84;5011272;28;20057;-59
2022/05/28 03:53:10;;;;;;;14.18;5.50;;;;;;;12.17;76.78;97824.94;5011639;28;20034;-61
2022/05/28 03:55:37;;;;;;;11.55;5.40;;;;;;;12.35;76.78;97816.06;5011794;28;20030;-61
2022/05/28 03:58:03;;;;;;;8.32;5.70;;;;;;;12.43;76.92;97818.22;5010372;28;20022;-61
2022/05/28 04:00:30;;;;;;;11.07;6.30;;;;;;;12.47;76.41;97818.88;5011706;28;20029;-60
2022/05/28 04:02:57;;;;;;;10.93;5.65;;;;;;;12.63;75.78;97822.22;5011472;28;20392;-61
2022/05/28 04:05:23;;;;;;;10.38;5.30;;;;;;;12.67;75.99;97818.53;5011651;28;20045;-60
2022/05/28 04:07:49;;;;;;;7.93;4.78;;;;;;;12.81;76.13;97814.25;5010267;28;20033;-60
2022/05/28 04:10:15;;;;;;;13.50;4.85;;;;;;;12.94;75.44;97813.41;5014320;28;20034;-60
2022/05/28 04:12:41;;;;;;;7.32;5.32;;;;;;;12.87;74.51;97812.09;5015044;28;20026;-59
2022/05/28 04:15:08;;;;;;;8.77;4.55;;;;;;;13.02;74.86;97812.09;5014968;28;20037;-61
2022/05/28 04:17:33;;;;;;;10.90;4.82;;;;;;;13.23;74.24;97809.94;5015044;28;20041;-61
2022/05/28 04:19:59;;;;;;;6.57;3.95;;;;;;;13.33;72.47;97798.00;5015183;28;20038;-62
2022/05/28 04:22:25;;;;;;;11.02;4.70;;;;;;;13.37;72.73;97793.50;5014522;28;20072;-62
2022/05/28 04:24:51;;;;;;;8.50;4.82;;;;;;;13.46;73.31;97792.91;5014837;28;20030;-61
2022/05/28 04:27:16;;;;;;;10.65;4.85;;;;;;;13.55;72.42;97789.72;5014539;28;20018;-62
2022/05/28 04:29:42;;;;;;;9.77;4.38;;;;;;;13.66;72.49;97791.59;5014796;28;20049;-61
2022/05/28 04:32:08;;;;;;;11.10;4.35;;;;;;;13.93;71.00;97786.38;5014018;28;20025;-62
2022/05/28 04:34:34;;;;;;;10.75;4.68;;;;;;;14.12;71.23;97791.19;5013192;28;20589;-61
2022/05/28 04:36:59;;;;;;;9.05;4.20;;;;;;;14.15;70.20;97788.38;5014530;28;20109;-62
2022/05/28 04:39:25;;;;;;;8.73;5.22;;;;;;;14.39;69.57;97792.03;5014477;28;20026;-62
2022/05/28 04:41:51;;;;;;;10.73;4.63;;;;;;;14.52;68.83;97786.81;5014379;28;20026;-61
2022/05/28 04:44:16;;;;;;;9.60;4.22;;;;;;;14.57;69.13;97788.19;5014424;28;20084;-61
2022/05/28 04:46:42;;;;;;;8.65;4.90;;;;;;;14.72;67.56;97786.34;5013999;28;20030;-62
2022/05/28 04:49:07;;;;;;;10.48;4.25;;;;;;;14.83;66.04;97786.41;5014479;28;20459;-60
2022/05/28 04:51:33;;;;;;;7.85;4.57;;;;;;;14.67;65.47;97789.25;5014045;28;20483;-61
2022/05/28 04:53:58;;;;;;;12.60;4.70;;;;;;;14.77;67.12;97791.22;5014388;28;20034;-61
2022/05/28 04:56:24;;;;;;;8.32;3.95;;;;;;;14.80;66.39;97793.63;5014483;28;20030;-62
2022/05/28 04:58:50;;;;;;;22.52;4.40;;;;;;;14.65;67.11;97783.31;5013958;28;20069;-61
2022/05/28 05:01:18;;;;;;;6.95;4.15;;;;;;;14.62;66.41;97778.31;5013848;28;20022;-61
2022/05/28 05:03:44;;;;;;;6.20;3.65;;;;;;;14.63;66.73;97781.75;5014366;28;20056;-61
2022/05/28 05:06:10;;;;;;;9.40;4.32;;;;;;;14.56;67.65;97780.47;5014240;28;20398;-60
2022/05/28 05:08:35;;;;;;;13.23;3.83;;;;;;;14.44;67.51;97779.56;5012882;28;20018;-61
2022/05/28 05:11:01;;;;;;;6.53;3.72;;;;;;;14.48;66.76;97781.84;5014010;28;20033;-61
2022/05/28 05:13:27;;;;;;;5.75;3.58;;;;;;;14.29;67.31;97787.47;5013747;28;20109;-61
2022/05/28 05:15:53;;;;;;;9.07;3.80;;;;;;;14.16;67.04;97791.81;5013594;28;20463;-60
2022/05/28 05:18:18;;;;;;;9.07;4.05;;;;;;;14.31;67.26;97785.59;5013851;28;20038;-61
2022/05/28 05:20:44;;;;;;;10.10;4.60;;;;;;;14.27;68.59;97780.69;5012616;28;20395;-60
2022/05/28 05:23:10;;;;;;;6.43;4.30;;;;;;;14.01;67.84;97785.03;5013655;28;20383;-60
2022/05/28 05:25:36;;;;;;;11.70;4.75;;;;;;;14.11;68.88;97788.69;5012533;28;20030;-60
2022/05/28 05:28:02;;;;;;;7.78;3.85;;;;;;;13.99;69.76;97792.94;5013389;28;20076;-61
2022/05/28 05:30:28;;;;;;;6.72;3.80;;;;;;;13.95;69.88;97784.50;5013397;28;20530;-60
2022/05/28 05:32:54;;;;;;;7.72;3.47;;;;;;;13.72;69.70;97787.78;5013475;28;20034;-61
2022/05/28 05:35:21;;;;;;;6.38;3.08;;;;;;;13.63;70.44;97790.03;5013797;28;20030;-61
2022/05/28 05:37:47;;;;;;;7.53;3.35;;;;;;;13.59;70.26;97788.56;5013747;28;20030;-61
2022/05/28 05:40:13;;;;;;;4.45;2.53;;;;;;;13.37;69.10;97793.50;5013433;28;20112;-60
2022/05/28 05:42:39;;;;;;;6.03;2.78;;;;;;;13.29;68.40;97791.34;5012979;28;20109;-59
2022/05/28 05:45:05;;;;;;;6.20;2.38;;;;;;;13.17;69.18;97792.09;5028804;28;20125;-60
2022/05/28 05:47:31;;;;;;;4.80;2.10;;;;;;;13.06;69.77;97790.19;5013483;28;20022;-59
2022/05/28 05:49:57;;;;;;;7.43;2.10;;;;;;;13.04;68.91;97792.88;5013026;28;20033;-59
2022/05/28 05:52:23;;;;;;;3.63;2.10;;;;;;;13.03;70.27;97798.19;5013107;28;20022;-59
2022/05/28 05:54:48;;;;;;;6.97;2.53;;;;;;;12.88;71.85;97800.78;5012827;28;20054;-59
2022/05/28 05:57:14;;;;;;;8.10;2.47;;;;;;;12.70;72.05;97804.53;5013378;28;20050;-59
2022/05/28 05:59:39;;;;;;;7.72;2.78;;;;;;;12.64;74.22;97799.69;5013143;28;20072;-59
2022/05/28 06:02:05;;;;;;;9.05;3.03;;;;;;;12.65;74.46;97809.16;5012906;28;20033;-60
2022/05/28 06:04:31;;;;;;;5.32;3.45;;;;;;;12.64;76.27;97810.91;5013028;28;20046;-61
2022/05/28 06:06:56;;;;;;;10.90;3.30;;;;;;;12.57;77.83;97810.44;5013077;28;20112;-60
2022/05/28 06:09:22;;;;;;;7.82;3.47;;;;;;;12.42;77.71;97812.19;5013114;28;20034;-60
2022/05/28 06:11:47;;;;;;;8.57;3.30;;;;;;;12.47;78.46;97811.94;5011546;28;20026;-59
2022/05/28 06:14:13;;;;;;;7.40;3.20;;;;;;;12.44;78.93;97812.09;5013190;28;20029;-59
2022/05/28 06:16:38;;;;;;;5.50;2.83;;;;;;;12.31;79.99;97817.16;5012726;28;20049;-59
2022/05/28 06:19:06;;;;;;;5.43;2.97;;;;;;;12.06;81.86;97771.91;5012701;28;20034;-59
2022/05/28 06:21:32;;;;;;;5.13;3.22;;;;;;;12.39;82.17;97819.31;5012863;28;20025;-59
2022/05/28 06:24:00;;;;;;;6.10;3.30;;;;;;;12.09;82.16;97776.09;5012574;28;20032;-58
2022/05/28 06:26:25;;;;;;;6.00;3.53;;;;;;;12.47;82.43;97819.72;5012558;28;20072;-57
2022/05/28 06:28:52;;;;;;;10.85;4.35;;;;;;;12.49;83.52;97833.44;5012298;28;20037;-58
2022/05/28 06:31:18;;;;;;;9.60;4.22;;;;;;;12.46;84.18;97819.81;5010788;28;20041;-58
2022/05/28 06:33:44;;;;;;;12.13;4.57;;;;;;;12.52;83.85;97822.84;5010899;28;20029;-58
2022/05/28 06:36:11;;;;;;;6.88;3.92;;;;;;;12.45;82.69;97831.94;5012088;28;20112;-59
2022/05/28 06:38:37;;;;;;;8.00;3.67;;;;;;;12.51;83.44;97823.81;5010948;28;20040;-58
2022/05/28 06:41:03;;;;;;;8.02;3.72;;;;;;;12.55;84.22;97829.63;5027336;28;20029;-58
2022/05/28 06:43:29;;;;;;;4.38;3.17;;;;;;;12.48;82.44;97825.72;5011713;28;20028;-59
2022/05/28 06:45:54;;;;;;;5.20;3.53;;;;;;;12.51;83.23;97830.75;5012433;28;20022;-59
2022/05/28 06:48:20;;;;;;;9.00;2.92;;;;;;;12.40;82.52;97826.19;5012004;28;20025;-59
2022/05/28 06:51:04;;;;;;;8.45;3.80;;;;;;;12.42;83.12;97829.53;5011350;28;20029;-58
2022/05/28 06:53:40;;;;;;;8.98;3.58;;;;;;;12.28;82.91;97835.53;5007318;28;20451;-58
2022/05/28 06:56:08;;;;;;;5.38;3.42;;;;;;;12.27;83.64;97836.47;5011231;28;20080;-58
2022/05/28 06:58:33;;;;;;;12.07;3.45;;;;;;;12.13;82.82;97841.59;5012288;28;20430;-58
2022/05/28 07:01:00;;;;;;;6.90;3.10;;;;;;;12.07;81.59;97828.06;5012325;28;20037;-60
2022/05/28 07:03:27;;;;;;;4.00;2.83;;;;;;;12.14;82.79;97848.47;5010166;28;20049;-60
2022/05/28 07:05:54;;;;;;;6.35;3.70;;;;;;;12.20;83.67;97846.38;5012673;28;20474;-60
2022/05/28 07:08:21;;;;;;;6.40;2.60;;;;;;;12.16;81.30;97850.06;5012123;28;20026;-60
2022/05/28 07:10:49;;;;;;;6.15;2.70;;;;;;;12.07;82.87;97853.16;5012259;28;20038;-60
2022/05/28 07:13:15;;;;;;;5.72;2.65;;;;;;;12.09;81.51;97852.16;5011976;28;20105;-59
2022/05/28 07:15:41;;;;;;;5.28;2.65;;;;;;;12.19;81.77;97856.84;5011740;28;20522;-58
2022/05/28 07:18:07;;;;;;;10.27;3.17;;;;;;;12.18;82.28;97866.34;5010552;28;20034;-59
2022/05/28 07:20:34;;;;;;;5.82;2.75;;;;;;;11.96;82.15;97855.56;5012175;28;20022;-59
2022/05/28 07:23:15;;;;;;;4.75;2.63;;;;;;;12.03;81.59;97859.47;5012320;28;20112;-59
2022/05/28 07:25:42;;;;;;;5.72;3.22;;;;;;;12.09;82.54;97865.13;5012027;28;20390;-60
2022/05/28 07:28:27;;;;;;;12.15;3.38;;;;;;;12.01;82.19;97867.31;5026942;28;20034;-60
2022/05/28 07:30:54;;;;;;;7.25;3.53;;;;;;;12.07;82.45;97868.72;5012303;28;20026;-60
2022/05/28 07:33:20;;;;;;;9.02;3.13;;;;;;;12.08;82.58;97876.47;5011459;28;20030;-59
2022/05/28 07:35:46;;;;;;;5.68;2.92;;;;;;;12.06;82.36;97882.66;5011679;28;20029;-59
2022/05/28 07:38:12;;;;;;;5.90;2.90;;;;;;;11.96;82.08;97887.53;5011721;28;20061;-59
2022/05/28 07:40:38;;;;;;;5.93;2.83;;;;;;;11.79;80.50;97879.81;5012021;28;20026;-59
2022/05/28 07:43:04;;;;;;;6.72;2.60;;;;;;;11.95;81.06;97874.63;5012151;28;20533;-60
2022/05/28 07:45:35;;;;;;;6.10;2.80;;;;;;;11.64;80.78;97827.88;5015182;28;20033;-58
2022/05/28 07:48:00;;;;;;;6.38;3.28;;;;;;;11.92;80.38;97880.78;5014212;28;20395;-60
2022/05/28 07:50:26;;;;;;;3.70;2.85;;;;;;;11.85;81.54;97885.47;5015199;28;20029;-60
2022/05/28 07:52:51;;;;;;;5.57;3.22;;;;;;;11.96;80.84;97882.34;5014697;28;20254;-59
2022/05/28 07:55:17;;;;;;;5.53;2.95;;;;;;;11.97;81.03;97881.41;5015552;28;20022;-60
2022/05/28 07:57:42;;;;;;;7.43;3.28;;;;;;;12.11;81.34;97888.41;5015363;28;20034;-59
2022/05/28 08:00:09;;;;;;;7.90;3.05;;;;;;;12.10;80.07;97891.94;5015271;28;20418;-61
2022/05/28 08:02:34;;;;;;;4.72;3.00;;;;;;;12.23;81.46;97900.69;5015055;28;20104;-60
2022/05/28 08:05:00;;;;;;;8.18;3.08;;;;;;;12.30;80.05;97903.78;5015191;28;20453;-60
2022/05/28 08:07:25;;;;;;;4.68;3.17;;;;;;;12.40;81.00;97909.28;5015289;28;20038;-60
2022/05/28 08:09:51;;;;;;;8.57;3.67;;;;;;;12.51;80.67;97914.69;5014966;28;20490;-62
2022/05/28 08:12:16;;;;;;;4.85;3.20;;;;;;;12.23;81.58;97873.91;5015110;28;20033;-61
2022/05/28 08:14:42;;;;;;;8.52;3.08;;;;;;;12.51;78.33;97914.69;5015169;28;20125;-60
2022/05/28 08:17:08;;;;;;;8.88;3.53;;;;;;;12.51;79.70;97913.81;5009640;28;20068;-60
2022/05/28 08:19:34;;;;;;;5.32;2.72;;;;;;;12.44;75.65;97923.72;5008166;28;20025;-60
2022/05/28 08:24:44;;;;;;;5.47;2.80;;;;;;;12.54;75.84;97908.44;5013394;28;20033;-59
2022/05/28 08:27:10;;;;;;;5.47;2.60;;;;;;;12.52;75.78;97923.28;5014373;28;20030;-59
2022/05/28 08:29:35;;;;;;;6.70;2.58;;;;;;;12.18;74.47;97928.66;5014528;28;20467;-59
2022/05/28 08:32:01;;;;;;;7.70;2.83;;;;;;;12.40;76.74;97925.69;5014540;28;20037;-62
2022/05/28 08:34:27;;;;;;;3.97;2.58;;;;;;;12.50;75.10;97935.50;5014397;28;20057;-62
2022/05/28 08:36:52;;;;;;;4.97;2.72;;;;;;;12.64;74.38;97926.94;5014607;28;20029;-61
2022/05/28 08:39:18;;;;;;;4.47;2.47;;;;;;;12.62;74.73;97934.00;5014806;28;20034;-60
2022/05/28 08:41:55;;;;;;;7.97;2.60;;;;;;;12.28;75.62;97879.66;5014510;28;20057;-62
2022/05/28 08:44:27;;;;;;;4.80;2.50;;;;;;;12.69;74.44;97933.53;5014473;28;20052;-60
2022/05/28 08:47:22;;;;;;;9.15;2.60;;;;;;;12.51;74.32;97953.63;5012719;28;20056;-61
2022/05/28 08:49:50;;;;;;;4.28;2.40;;;;;;;12.59;73.55;97940.19;5006399;28;20038;-60
2022/05/28 08:52:23;;;;;;;5.25;2.90;;;;;;;12.54;75.66;97892.88;5014158;28;20578;-60
2022/05/28 08:55:00;;;;;;;6.38;2.50;;;;;;;12.67;73.05;97887.78;5014002;28;20038;-61
2022/05/28 08:57:43;;;;;;;3.88;2.40;;;;;;;12.87;72.04;97897.84;5013689;28;20068;-61
2022/05/28 09:00:24;;;;;;;4.85;2.60;;;;;;;13.30;70.50;97964.59;5014349;28;20030;-61
2022/05/28 09:02:54;;;;;;;4.13;2.38;;;;;;;13.48;71.06;97952.25;5013806;28;20459;-61
2022/05/28 09:05:46;;;;;;;6.55;2.88;;;;;;;13.33;70.01;97953.19;5014601;28;20092;-61
2022/05/28 09:08:12;;;;;;;6.50;2.75;;;;;;;13.24;67.11;97950.22;5014163;28;20030;-61
2022/05/28 09:10:45;;;;;;;5.00;2.78;;;;;;;13.50;70.78;97975.59;5013675;28;20116;-61
2022/05/28 09:13:21;;;;;;;6.68;2.80;;;;;;;13.68;71.48;97953.66;5013368;28;20391;-61
2022/05/28 09:15:46;;;;;;;4.57;2.60;;;;;;;13.80;71.23;97957.25;5013597;28;20030;-61
2022/05/28 09:18:12;;;;;;;4.82;2.90;;;;;;;13.64;67.61;97953.00;5013111;28;20048;-60
2022/05/28 09:20:40;;;;;;;6.40;3.00;;;;;;;13.83;68.79;97946.63;5012938;28;20490;-61
2022/05/28 09:23:06;;;;;;;8.38;3.00;;;;;;;13.85;65.60;97955.16;5013634;28;20025;-61
2022/05/28 09:25:37;;;;;;;10.00;3.45;;;;;;;13.82;66.33;97947.56;5013357;28;20101;-59
2022/05/28 09:28:21;;;;;;;6.60;3.08;;;;;;;13.73;65.27;97964.59;5013140;28;20041;-59
2022/05/28 09:31:25;;;;;;;6.35;2.60;;;;;;;13.74;67.70;97957.63;5012932;28;20484;-59
2022/05/28 09:34:14;;;;;;;8.68;3.30;;;;;;;13.68;64.86;97978.81;5013378;28;20026;-59
2022/05/28 09:36:58;;;;;;;4.72;2.58;;;;;;;13.72;65.07;97973.31;5013460;28;20025;-61
2022/05/28 09:39:25;;;;;;;6.25;2.75;;;;;;;13.77;67.17;97978.25;5007344;28;20038;-59
2022/05/28 09:42:26;;;;;;;5.72;2.42;;;;;;;13.81;67.36;97979.72;5013367;28;20026;-62
2022/05/28 09:44:51;;;;;;;4.68;2.30;;;;;;;13.67;66.25;97988.38;5002725;28;20034;-61
2022/05/28 09:47:17;;;;;;;4.30;2.47;;;;;;;13.68;66.65;97990.06;5013149;28;20022;-59
2022/05/28 09:49:55;;;;;;;4.40;2.40;;;;;;;13.56;66.18;97985.59;5012784;28;20088;-61
2022/05/28 09:52:30;;;;;;;6.00;2.38;;;;;;;13.70;66.89;97995.19;5012926;28;20109;-59
2022/05/28 09:55:31;;;;;;;5.95;2.47;;;;;;;13.57;68.74;98001.13;5013032;28;20040;-60
2022/05/28 09:58:01;;;;;;;4.88;2.50;;;;;;;13.51;69.66;98008.44;4952280;29;20057;-61
2022/05/28 10:00:27;;;;;;;8.35;2.38;;;;;;;13.38;69.72;98008.34;5001923;28;20042;-60
2022/05/28 10:05:51;;;;;;;4.15;2.30;;;;;;;13.38;70.88;98014.41;5013008;28;20104;-61
2022/05/28 10:08:16;;;;;;;4.35;2.67;;;;;;;13.67;71.18;98021.34;5012254;28;20022;-60
2022/05/28 10:10:56;;;;;;;3.83;2.20;;;;;;;13.64;71.95;98014.59;5012662;28;20026;-60
2022/05/28 10:13:25;;;;;;;7.32;2.55;;;;;;;13.62;71.04;98032.91;5012346;28;20025;-61
2022/05/28 10:15:52;;;;;;;3.15;1.98;;;;;;;13.78;70.40;98039.75;5012982;28;20483;-60
2022/05/28 10:18:21;;;;;;;4.15;2.28;;;;;;;13.28;69.11;97992.44;5011865;28;20054;-61
2022/05/28 10:21:02;;;;;;;3.30;1.90;;;;;;;13.61;69.57;98033.81;5012522;28;20022;-61
2022/05/28 10:23:28;;;;;;;3.03;1.80;;;;;;;13.58;69.65;98039.22;5003069;28;20030;-64
2022/05/28 10:25:54;;;;;;;2.40;2.05;;;;;;;13.44;71.09;98053.03;5012184;28;20125;-59
2022/05/28 10:28:31;;;;;;;5.60;2.40;;;;;;;13.14;71.78;97995.88;5012717;28;20053;-60
2022/05/28 10:30:58;;;;;;;3.85;2.60;;;;;;;13.41;72.98;98027.22;5012039;28;20026;-61
2022/05/28 10:33:29;;;;;;;2.83;2.33;;;;;;;13.46;72.56;98042.53;5011500;28;20045;-60
2022/05/28 10:36:08;;;;;;;4.22;2.33;;;;;;;13.63;75.34;98039.75;5012705;28;20471;-61
2022/05/28 10:38:33;;;;;;;4.85;2.90;;;;;;;13.60;73.71;98036.53;5009737;28;20029;-59
2022/05/28 10:41:02;;;;;;;4.90;3.00;;;;;;;13.33;73.44;98005.19;5011659;28;20029;-61
2022/05/28 10:43:37;;;;;;;5.43;2.83;;;;;;;13.62;74.20;98034.66;5011764;28;20033;-59
2022/05/28 10:46:44;;;;;;;3.65;2.83;;;;;;;13.67;74.35;98050.81;5012475;28;20136;-62
2022/05/28 10:49:21;;;;;;;4.72;3.10;;;;;;;13.62;73.93;98048.50;4981240;28;20066;-61
2022/05/28 10:52:23;;;;;;;7.70;3.60;;;;;;;13.68;75.69;98049.91;5012224;28;20566;-63
2022/05/28 10:55:03;;;;;;;5.30;3.80;;;;;;;13.48;73.34;98008.63;5021921;28;20044;-61
2022/05/28 10:57:44;;;;;;;4.85;3.47;;;;;;;13.90;73.40;98054.63;5012539;28;20487;-61
2022/05/28 11:00:14;;;;;;;5.47;3.60;;;;;;;13.77;74.06;98014.69;4997542;28;20061;-61
2022/05/28 11:03:03;;;;;;;6.00;3.75;;;;;;;14.29;71.94;98060.03;5011891;28;20479;-60
2022/05/28 11:05:54;;;;;;;5.25;3.45;;;;;;;14.49;73.36;98061.38;5012386;28;20042;-61
2022/05/28 11:08:22;;;;;;;4.47;3.42;;;;;;;14.50;71.25;98066.47;5011966;28;20129;-61
2022/05/28 11:11:23;;;;;;;4.13;3.20;;;;;;;14.50;70.07;98056.06;5011973;28;20669;-61
2022/05/28 11:14:20;;;;;;;6.80;3.42;;;;;;;14.40;68.87;98062.81;5011478;28;20105;-60
2022/05/28 11:17:00;;;;;;;5.95;3.95;;;;;;;14.69;68.83;98067.94;4975058;28;20039;-59
2022/05/28 11:19:44;;;;;;;6.97;3.38;;;;;;;14.89;69.80;98058.81;5012492;28;20022;-61
2022/05/28 11:22:09;;;;;;;7.60;3.35;;;;;;;14.98;67.93;98065.22;5016191;28;20030;-60
2022/05/28 11:24:47;;;;;;;8.07;3.60;;;;;;;15.18;69.31;98061.28;5014999;28;20136;-62
2022/05/28 11:27:27;;;;;;;8.27;3.42;;;;;;;15.32;68.34;98061.19;5015920;28;20026;-61
2022/05/28 11:30:04;;;;;;;6.93;3.15;;;;;;;15.12;67.15;97997.34;5015276;28;20433;-61
2022/05/28 11:32:34;;;;;;;4.70;3.20;;;;;;;15.39;67.96;98042.53;4996621;28;20080;-59
2022/05/28 11:35:17;;;;;;;7.43;2.50;;;;;;;15.34;66.19;98050.66;5014786;28;20113;-61
2022/05/28 11:37:54;;;;;;;4.78;2.67;;;;;;;15.40;65.08;98054.63;5015067;28;20029;-61
2022/05/28 11:40:27;;;;;;;4.40;2.50;;;;;;;15.22;64.49;98005.38;5015121;28;20034;-61
2022/05/28 11:43:05;;;;;;;3.20;2.42;;;;;;;15.61;62.56;98053.16;5015426;28;20041;-61
2022/05/28 11:45:37;;;;;;;3.65;2.40;;;;;;;15.58;62.25;98053.38;5015128;28;20103;-62
2022/05/28 11:51:33;;;;;;;2.33;1.70;;;;;;;15.66;58.87;98058.91;4979564;28;20038;-61
2022/05/28 11:54:05;;;;;;;5.50;2.55;;;;;;;15.50;58.04;98060.88;5014749;28;20425;-61
2022/05/28 11:56:31;;;;;;;4.40;1.90;;;;;;;15.54;59.76;98062.34;4998283;28;20037;-62